Weather at Seruyan Kuala Pembuang Airport

Public forecast

Using degrees Celsius for public forecast. Weather courtesy of forecast.io.

Closest aviation weather report (METAR) to Seruyan Kuala Pembuang Airport

Closest report is Syamsudin Noor Airport, 133.5 nm (247.2 km) E. Retrieved 2022/01/27 10:30 UTC (3 minutes ago):

WAOO 271030Z AUTO 22005KT 180V240 8000 NCD 29/24 Q1006

Closest aviation forecast (TAF) to Seruyan Kuala Pembuang Airport

Closest forecast is Syamsudin Noor Airport, 133.5 nm (247.2 km) E. Retrieved 2022/01/27 06:00 UTC (5 hours ago):

TAF WAOO 270500Z 2706/2806 21006KT 9999 SCT018 PROB40 TEMPO 2708/2712 5000 RA